createdAt,value
2019-04-04T00:01:16.999Z,84.43
2019-04-04T00:03:46.054Z,84.35
2019-04-04T00:06:14.578Z,84.20
2019-04-04T00:08:43.010Z,84.54
2019-04-04T00:11:11.522Z,83.99
2019-04-04T00:13:41.948Z,83.93
2019-04-04T00:16:10.282Z,83.47
2019-04-04T00:18:38.919Z,83.13
2019-04-04T00:21:07.469Z,83.42
2019-04-04T00:23:38.057Z,83.96
2019-04-04T00:26:06.264Z,85.78
2019-04-04T00:28:34.679Z,86.84
2019-04-04T00:31:03.087Z,86.47
2019-04-04T00:33:31.540Z,86.37
2019-04-04T00:36:00.671Z,85.40
2019-04-04T00:38:30.443Z,85.11
2019-04-04T00:40:58.929Z,84.77
2019-04-04T00:43:27.376Z,83.68
2019-04-04T00:45:55.800Z,83.06
2019-04-04T00:48:24.276Z,82.65
2019-04-04T00:50:52.720Z,83.09
2019-04-04T00:53:21.202Z,82.65
2019-04-04T00:55:49.622Z,83.14
2019-04-04T00:58:18.906Z,82.90
2019-04-04T01:00:48.443Z,82.27
2019-04-04T01:03:16.940Z,82.10
2019-04-04T01:05:45.390Z,81.42
2019-04-04T01:08:13.813Z,81.30
2019-04-04T01:10:42.308Z,81.97
2019-04-04T01:13:10.763Z,82.21
2019-04-04T01:15:39.496Z,82.16
2019-04-04T01:18:08.179Z,82.94
2019-04-04T01:20:36.816Z,83.98
2019-04-04T01:23:05.330Z,83.68
2019-04-04T01:25:33.838Z,83.23
2019-04-04T01:28:02.398Z,82.81
2019-04-04T01:30:30.833Z,83.26
2019-04-04T01:32:59.249Z,82.65
2019-04-04T01:35:27.822Z,83.02
2019-04-04T01:37:58.146Z,84.75
2019-04-04T01:40:26.413Z,84.82
2019-04-04T01:42:54.915Z,83.44
2019-04-04T01:45:23.400Z,83.46
2019-04-04T01:47:51.883Z,83.03
2019-04-04T01:50:22.534Z,83.38
2019-04-04T01:52:50.505Z,83.14
2019-04-04T01:55:19.015Z,82.68
2019-04-04T01:57:47.530Z,83.10
2019-04-04T02:00:16.575Z,82.98
2019-04-04T02:02:45.212Z,82.95
2019-04-04T02:05:13.795Z,82.89
2019-04-04T02:07:42.302Z,83.60
2019-04-04T02:10:11.062Z,82.62
2019-04-04T02:12:39.509Z,82.61
2019-04-04T02:15:13.912Z,83.82
2019-04-04T02:17:40.582Z,83.24
2019-04-04T02:20:09.254Z,83.00
2019-04-04T02:22:37.739Z,82.24
2019-04-04T02:25:07.210Z,82.56
2019-04-04T02:27:37.607Z,81.91
2019-04-04T02:30:07.471Z,82.30
2019-04-04T02:32:35.937Z,82.81
2019-04-04T02:35:10.180Z,82.77
2019-04-04T02:37:36.801Z,83.45
2019-04-04T02:40:10.053Z,83.47
2019-04-04T02:42:38.954Z,83.60
2019-04-04T02:45:07.632Z,82.99
2019-04-04T02:47:36.206Z,83.48
2019-04-04T02:50:06.098Z,83.96
2019-04-04T02:52:34.576Z,84.29
2019-04-04T02:55:03.133Z,83.35
2019-04-04T02:57:31.651Z,83.27
2019-04-04T03:00:00.702Z,83.70
2019-04-04T03:02:29.257Z,83.66
2019-04-04T03:04:57.843Z,83.09
2019-04-04T03:07:29.884Z,83.71
2019-04-04T03:09:56.737Z,83.29
2019-04-04T03:12:26.231Z,83.37
2019-04-04T03:14:55.456Z,82.46
2019-04-04T03:17:23.960Z,82.11
2019-04-04T03:19:52.564Z,82.37
2019-04-04T03:22:20.983Z,83.61
2019-04-04T03:24:49.565Z,84.39
2019-04-04T03:27:18.061Z,84.65
2019-04-04T03:29:46.745Z,85.23
2019-04-04T03:32:16.610Z,85.16
2019-04-04T03:34:50.025Z,85.84
2019-04-04T03:37:15.510Z,85.29
2019-04-04T03:39:43.984Z,85.05
2019-04-04T03:42:12.438Z,85.10
2019-04-04T03:44:40.876Z,85.56
2019-04-04T03:47:10.440Z,84.96
2019-04-04T03:49:39.471Z,86.03
2019-04-04T03:52:11.173Z,86.15
2019-04-04T03:54:38.049Z,86.52
2019-04-04T03:57:10.915Z,86.53
2019-04-04T03:59:36.657Z,88.34
2019-04-04T04:02:05.209Z,88.25
2019-04-04T04:04:33.688Z,88.38
2019-04-04T04:07:02.119Z,88.11
2019-04-04T04:09:30.863Z,88.60
2019-04-04T04:11:59.349Z,89.06
2019-04-04T04:14:27.763Z,88.96
2019-04-04T04:16:56.216Z,89.11
2019-04-04T04:19:30.019Z,87.94
2019-04-04T04:21:55.252Z,87.00
2019-04-04T04:24:23.700Z,87.09
2019-04-04T04:26:52.108Z,87.79
2019-04-04T04:29:20.533Z,88.65
2019-04-04T04:31:49.523Z,88.28
2019-04-04T04:34:18.187Z,87.89
2019-04-04T04:36:48.114Z,87.62
2019-04-04T04:39:16.885Z,88.08
2019-04-04T04:41:45.347Z,89.14
2019-04-04T04:44:13.999Z,88.67
2019-04-04T04:46:42.415Z,87.81
2019-04-04T04:49:10.833Z,87.76
2019-04-04T04:51:43.255Z,88.55
2019-04-04T04:54:09.480Z,89.21
2019-04-04T04:56:37.972Z,89.10
2019-04-04T04:59:06.407Z,89.06
2019-04-04T05:01:34.856Z,88.28
2019-04-04T05:04:03.372Z,87.46
2019-04-04T05:06:35.285Z,88.26
2019-04-04T05:09:01.945Z,87.94
2019-04-04T05:11:30.406Z,87.59
2019-04-04T05:13:58.900Z,87.26
2019-04-04T05:16:27.416Z,87.46
2019-04-04T05:18:55.857Z,87.67
2019-04-04T05:21:26.317Z,87.43
2019-04-04T05:23:54.494Z,87.62
2019-04-04T05:26:22.967Z,87.15
2019-04-04T05:28:51.451Z,87.38
2019-04-04T05:31:19.874Z,87.52
2019-04-04T05:33:48.339Z,87.34
2019-04-04T05:36:16.756Z,86.89
2019-04-04T05:38:47.134Z,87.06
2019-04-04T05:41:16.601Z,87.40
2019-04-04T05:43:45.508Z,87.86
2019-04-04T05:46:14.046Z,87.62
2019-04-04T05:48:42.571Z,87.89
2019-04-04T05:51:10.986Z,87.72
2019-04-04T05:53:39.510Z,87.18
2019-04-04T05:56:07.952Z,87.06
2019-04-04T05:58:36.412Z,88.08
2019-04-04T06:01:06.608Z,87.83
2019-04-04T06:03:35.704Z,88.38
2019-04-04T06:06:04.352Z,87.43
2019-04-04T06:08:32.736Z,87.06
2019-04-04T06:11:01.190Z,87.22
2019-04-04T06:13:29.602Z,87.50
2019-04-04T06:15:58.133Z,87.50
2019-04-04T06:18:26.551Z,87.19
2019-04-04T06:20:55.016Z,86.89
2019-04-04T06:23:25.062Z,87.58
2019-04-04T06:25:53.962Z,87.89
2019-04-04T06:28:22.383Z,88.20
2019-04-04T06:30:53.448Z,88.30
2019-04-04T06:33:20.997Z,88.16
2019-04-04T06:35:49.603Z,88.11
2019-04-04T06:38:18.136Z,88.06
2019-04-04T06:40:46.562Z,87.95
2019-04-04T06:43:15.026Z,88.35
2019-04-04T06:45:46.298Z,88.29
2019-04-04T06:48:13.701Z,88.31
2019-04-04T06:50:43.124Z,88.68
2019-04-04T06:53:11.715Z,89.33
2019-04-04T06:55:40.437Z,89.64
2019-04-04T06:58:09.654Z,90.00
2019-04-04T07:00:38.397Z,89.25
2019-04-04T07:03:06.813Z,90.22
2019-04-04T07:05:37.879Z,90.01
2019-04-04T07:08:05.568Z,88.38
2019-04-04T07:10:34.023Z,89.37
2019-04-04T07:13:14.816Z,89.64
2019-04-04T07:15:32.621Z,90.28
2019-04-04T07:18:01.124Z,89.56
2019-04-04T07:20:29.580Z,90.00
2019-04-04T07:22:58.111Z,90.03
2019-04-04T07:25:26.592Z,89.44
2019-04-04T07:27:55.092Z,90.08
2019-04-04T07:30:27.982Z,89.66
2019-04-04T07:32:54.753Z,89.74
2019-04-04T07:35:23.237Z,88.65
2019-04-04T07:37:56.623Z,89.15
2019-04-04T07:40:21.855Z,88.54
2019-04-04T07:42:50.291Z,87.80
2019-04-04T07:45:18.739Z,87.25
2019-04-04T07:47:47.767Z,86.23
2019-04-04T07:50:16.334Z,86.77
2019-04-04T07:52:44.814Z,87.59
2019-04-04T07:55:14.901Z,87.49
2019-04-04T07:57:43.427Z,87.30
2019-04-04T08:00:12.265Z,87.08
2019-04-04T08:02:40.772Z,87.13
2019-04-04T08:05:12.989Z,87.37
2019-04-04T08:07:40.497Z,88.07
2019-04-04T08:10:20.025Z,88.22
2019-04-04T08:12:40.427Z,88.45
2019-04-04T08:15:09.398Z,88.37
2019-04-04T08:17:37.930Z,88.25
2019-04-04T08:20:07.086Z,87.69
2019-04-04T08:22:35.633Z,87.09
2019-04-04T08:25:05.118Z,87.15
2019-04-04T08:27:33.619Z,87.74
2019-04-04T08:30:02.110Z,87.78
2019-04-04T08:32:30.560Z,87.85
2019-04-04T08:34:59.041Z,87.88
2019-04-04T08:37:27.588Z,88.69
2019-04-04T08:39:56.164Z,88.09
2019-04-04T08:42:24.608Z,88.47
2019-04-04T08:44:53.020Z,88.38
2019-04-04T08:47:21.515Z,88.22
2019-04-04T08:49:50.072Z,88.52
2019-04-04T08:52:20.796Z,88.62
2019-04-04T08:54:48.701Z,89.45
2019-04-04T08:57:17.136Z,89.97
2019-04-04T08:59:45.586Z,89.62
2019-04-04T09:02:14.088Z,89.79
2019-04-04T09:04:42.625Z,89.17
2019-04-04T09:07:11.041Z,87.94
2019-04-04T09:09:39.759Z,87.67
2019-04-04T09:12:08.159Z,87.87
2019-04-04T09:14:36.581Z,87.96
2019-04-04T09:17:05.171Z,87.43
2019-04-04T09:19:33.638Z,88.38
2019-04-04T09:22:02.194Z,88.48
2019-04-04T09:24:30.639Z,88.04
2019-04-04T09:26:59.053Z,87.47
2019-04-04T09:29:27.538Z,87.98
2019-04-04T09:31:56.066Z,88.44
2019-04-04T09:34:24.520Z,89.10
2019-04-04T09:36:52.958Z,87.64
2019-04-04T09:39:21.370Z,87.61
2019-04-04T09:41:49.826Z,87.94
2019-04-04T09:44:18.230Z,87.33
2019-04-04T09:46:46.815Z,86.67
2019-04-04T09:49:15.227Z,86.84
2019-04-04T09:51:43.862Z,85.46
2019-04-04T09:54:12.421Z,86.07
2019-04-04T09:56:40.845Z,86.18
2019-04-04T09:59:09.525Z,85.51
2019-04-04T10:01:38.093Z,85.43
2019-04-04T10:04:06.585Z,85.42
2019-04-04T10:06:35.023Z,86.13
2019-04-04T10:09:15.575Z,85.01
2019-04-04T10:11:38.548Z,84.63
2019-04-04T10:14:07.032Z,84.21
2019-04-04T10:16:35.459Z,84.46
2019-04-04T10:19:03.890Z,84.67
2019-04-04T10:21:32.362Z,83.42
2019-04-04T10:24:01.115Z,83.87
2019-04-04T10:26:29.610Z,84.33
2019-04-04T10:28:58.214Z,84.36
2019-04-04T10:31:26.661Z,82.96
2019-04-04T10:33:55.103Z,82.98
2019-04-04T10:36:23.552Z,82.67
2019-04-04T10:38:52.090Z,83.24
2019-04-04T10:41:20.585Z,82.54
2019-04-04T10:43:49.101Z,82.97
2019-04-04T10:46:17.539Z,83.02
2019-04-04T10:48:46.027Z,83.10
2019-04-04T10:51:14.445Z,82.61
2019-04-04T10:53:43.036Z,83.54
2019-04-04T10:56:11.435Z,82.98
2019-04-04T10:58:39.886Z,83.20
2019-04-04T11:01:08.471Z,83.39
2019-04-04T11:03:36.919Z,83.85
2019-04-04T11:06:05.445Z,84.26
2019-04-04T11:08:33.969Z,85.03
2019-04-04T11:11:02.900Z,85.36
2019-04-04T11:13:33.824Z,86.06
2019-04-04T11:16:01.531Z,85.87
2019-04-04T11:18:30.067Z,86.14
2019-04-04T11:20:58.641Z,85.16
2019-04-04T11:23:27.172Z,85.05
2019-04-04T11:25:55.642Z,84.03
2019-04-04T11:28:24.060Z,85.21
2019-04-04T11:30:52.650Z,84.88
2019-04-04T11:33:21.098Z,84.73
2019-04-04T11:35:49.592Z,84.23
2019-04-04T11:38:18.205Z,84.06
2019-04-04T11:40:48.073Z,84.75
2019-04-04T11:43:18.173Z,84.30
2019-04-04T11:45:46.597Z,85.78
2019-04-04T11:48:15.079Z,85.45
2019-04-04T11:50:43.898Z,85.11
2019-04-04T11:53:12.425Z,84.71
2019-04-04T11:55:40.847Z,84.73
2019-04-04T11:58:09.326Z,84.68
2019-04-04T12:00:39.495Z,83.87
2019-04-04T12:03:08.089Z,84.15
2019-04-04T12:05:36.656Z,83.85
2019-04-04T12:08:05.171Z,83.93
2019-04-04T12:10:33.802Z,82.90
2019-04-04T12:13:02.256Z,83.96
2019-04-04T12:15:30.670Z,83.59
2019-04-04T12:17:59.141Z,84.34
2019-04-04T12:20:27.551Z,84.94
2019-04-04T12:22:56.085Z,85.05
2019-04-04T12:25:24.567Z,84.16
2019-04-04T12:27:53.029Z,83.63
2019-04-04T12:30:21.693Z,83.53
2019-04-04T12:32:50.212Z,83.08
2019-04-04T12:35:18.732Z,83.34
2019-04-04T12:37:47.195Z,83.44
2019-04-04T12:40:20.718Z,83.63
2019-04-04T12:42:45.912Z,85.02
2019-04-04T12:45:14.585Z,85.03
2019-04-04T12:47:43.075Z,84.38
2019-04-04T12:50:12.553Z,84.70
2019-04-04T12:52:41.001Z,86.56
2019-04-04T12:55:09.779Z,85.51
2019-04-04T12:57:38.260Z,85.36
2019-04-04T13:00:09.221Z,85.67
2019-04-04T13:02:37.815Z,86.31
2019-04-04T13:05:08.688Z,86.83
2019-04-04T13:07:37.099Z,84.15
2019-04-04T13:10:11.625Z,85.02
2019-04-04T13:12:38.080Z,84.83
2019-04-04T13:15:10.206Z,84.75
2019-04-04T13:17:38.693Z,85.44
2019-04-04T13:20:08.284Z,84.08
2019-04-04T13:22:36.848Z,84.12
2019-04-04T13:25:09.296Z,85.54
2019-04-04T13:27:37.745Z,84.93
2019-04-04T13:30:09.260Z,83.09
2019-04-04T13:32:37.830Z,84.86
2019-04-04T13:35:06.376Z,84.32
2019-04-04T13:37:34.984Z,81.08
2019-04-04T13:40:04.945Z,82.33
2019-04-04T13:42:33.459Z,83.67
2019-04-04T13:45:01.881Z,84.08
2019-04-04T13:47:30.404Z,84.03
2019-04-04T13:49:58.803Z,84.82
2019-04-04T13:52:27.272Z,83.94
2019-04-04T13:54:56.411Z,84.44
2019-04-04T13:57:24.896Z,85.02
2019-04-04T13:59:53.302Z,85.09
2019-04-04T14:02:22.082Z,83.87
2019-04-04T14:04:50.531Z,84.73
2019-04-04T14:07:18.978Z,85.16
2019-04-04T14:09:47.420Z,86.00
2019-04-04T14:12:15.856Z,84.55
2019-04-04T14:14:44.380Z,83.70
2019-04-04T14:17:12.872Z,82.66
2019-04-04T14:19:41.322Z,85.31
2019-04-04T14:22:09.911Z,83.76
2019-04-04T14:24:38.440Z,84.15
2019-04-04T14:27:07.013Z,85.52
2019-04-04T14:29:35.542Z,85.22
2019-04-04T14:32:04.066Z,86.16
2019-04-04T14:34:32.532Z,85.77
2019-04-04T14:37:03.493Z,86.05
2019-04-04T14:39:31.289Z,84.73
2019-04-04T14:42:00.094Z,85.17
2019-04-04T14:44:30.243Z,86.10
2019-04-04T14:46:58.740Z,85.51
2019-04-04T14:49:27.174Z,83.74
2019-04-04T14:51:55.591Z,84.40
2019-04-04T14:54:24.251Z,84.61
2019-04-04T14:56:52.710Z,84.66
2019-04-04T14:59:21.212Z,83.94
2019-04-04T15:01:49.711Z,84.19
2019-04-04T15:04:18.205Z,85.50
2019-04-04T15:06:46.736Z,84.81
2019-04-04T15:09:15.301Z,83.23
2019-04-04T15:11:43.733Z,83.65
2019-04-04T15:14:12.251Z,83.97
2019-04-04T15:16:40.709Z,83.67
2019-04-04T15:19:09.251Z,84.31
2019-04-04T15:21:37.746Z,83.04
2019-04-04T15:24:06.301Z,83.04
2019-04-04T15:26:34.835Z,83.97
2019-04-04T15:29:03.328Z,83.86
2019-04-04T15:31:31.784Z,84.52
2019-04-04T15:34:00.205Z,84.12
2019-04-04T15:36:28.621Z,84.85
2019-04-04T15:38:57.093Z,83.81
2019-04-04T15:41:36.312Z,84.27
2019-04-04T15:43:55.782Z,83.75
2019-04-04T15:46:24.185Z,84.23
2019-04-04T15:48:52.640Z,84.41
2019-04-04T15:51:21.173Z,84.36
2019-04-04T15:53:49.608Z,83.39
2019-04-04T15:56:18.055Z,83.57
2019-04-04T15:58:46.472Z,84.28
2019-04-04T16:01:15.022Z,85.12
2019-04-04T16:03:43.426Z,85.56
2019-04-04T16:06:11.924Z,84.59
2019-04-04T16:08:40.461Z,84.93
2019-04-04T16:11:08.995Z,85.34
2019-04-04T16:13:37.365Z,84.52
2019-04-04T16:16:06.073Z,84.77
2019-04-04T16:18:34.511Z,85.91
2019-04-04T16:21:03.029Z,84.89
2019-04-04T16:23:31.573Z,84.82
2019-04-04T16:26:00.123Z,84.58
2019-04-04T16:28:28.557Z,84.61
2019-04-04T16:30:57.014Z,83.42
2019-04-04T16:33:26.578Z,84.54
2019-04-04T16:35:55.171Z,84.64
2019-04-04T16:38:27.452Z,85.61
2019-04-04T16:40:56.213Z,85.76
2019-04-04T16:43:24.680Z,85.02
2019-04-04T16:45:53.116Z,85.28
2019-04-04T16:48:21.595Z,84.74
2019-04-04T16:50:50.121Z,84.87
2019-04-04T16:53:18.644Z,85.92
2019-04-04T16:55:47.119Z,85.19
2019-04-04T16:58:15.886Z,85.51
2019-04-04T17:00:44.302Z,86.07
2019-04-04T17:03:12.744Z,85.81
2019-04-04T17:05:41.225Z,86.62
2019-04-04T17:08:09.681Z,87.32
2019-04-04T17:10:38.273Z,87.16
2019-04-04T17:13:06.825Z,87.60
2019-04-04T17:15:35.257Z,87.59
2019-04-04T17:18:03.849Z,87.28
2019-04-04T17:20:32.286Z,87.56
2019-04-04T17:23:00.695Z,87.63
2019-04-04T17:25:29.249Z,87.81
2019-04-04T17:27:57.785Z,88.11
2019-04-04T17:30:26.562Z,87.37
2019-04-04T17:32:55.394Z,87.50
2019-04-04T17:35:24.581Z,87.81
2019-04-04T17:37:53.504Z,88.54
2019-04-04T17:40:22.048Z,88.21
2019-04-04T17:42:50.723Z,88.05
2019-04-04T17:45:19.630Z,87.72
2019-04-04T17:47:47.994Z,87.38
2019-04-04T17:50:19.191Z,86.63
2019-04-04T17:52:48.227Z,85.56
2019-04-04T17:55:16.985Z,85.86
2019-04-04T17:57:45.543Z,85.70
2019-04-04T18:00:16.260Z,86.71
2019-04-04T18:02:44.748Z,86.47
2019-04-04T18:05:13.636Z,86.66
2019-04-04T18:07:42.175Z,86.38
2019-04-04T18:10:11.183Z,86.46
2019-04-04T18:12:40.850Z,86.59
2019-04-04T18:15:10.888Z,87.35
2019-04-04T18:17:39.488Z,87.16
2019-04-04T18:20:08.618Z,87.57
2019-04-04T18:22:37.481Z,87.60
2019-04-04T18:25:06.979Z,88.16
2019-04-04T18:27:35.418Z,87.78
2019-04-04T18:30:11.514Z,87.94
2019-04-04T18:32:40.051Z,87.59
2019-04-04T18:35:09.534Z,87.02
2019-04-04T18:37:38.217Z,87.03
2019-04-04T18:40:08.483Z,87.86
2019-04-04T18:42:37.046Z,88.37
2019-04-04T18:45:07.246Z,88.12
2019-04-04T18:47:35.663Z,88.19
2019-04-04T18:50:05.811Z,88.22
2019-04-04T18:52:34.312Z,88.71
2019-04-04T18:55:02.804Z,89.10
2019-04-04T18:57:31.278Z,89.60
2019-04-04T18:59:59.771Z,89.95
2019-04-04T19:02:28.277Z,89.98
2019-04-04T19:04:56.721Z,89.08
2019-04-04T19:07:25.292Z,88.64
2019-04-04T19:09:53.879Z,88.42
2019-04-04T19:12:22.381Z,88.28
2019-04-04T19:14:50.808Z,88.53
2019-04-04T19:17:19.363Z,87.91
2019-04-04T19:19:47.766Z,87.71
2019-04-04T19:22:16.269Z,88.42
2019-04-04T19:24:44.724Z,88.93
2019-04-04T19:27:13.402Z,88.96
2019-04-04T19:29:41.909Z,88.87
2019-04-04T19:32:10.721Z,88.69
2019-04-04T19:34:39.282Z,88.44
2019-04-04T19:37:07.799Z,88.60
2019-04-04T19:39:36.290Z,88.69
2019-04-04T19:42:05.305Z,88.55
2019-04-04T19:44:34.105Z,88.79
2019-04-04T19:47:02.630Z,89.08
2019-04-04T19:49:31.045Z,89.67
2019-04-04T19:51:59.531Z,89.71
2019-04-04T19:54:28.010Z,89.65
2019-04-04T19:56:56.577Z,89.49
2019-04-04T19:59:25.067Z,89.37
2019-04-04T20:01:53.533Z,89.65
2019-04-04T20:04:22.159Z,90.02
2019-04-04T20:06:50.633Z,89.94
2019-04-04T20:09:19.141Z,90.26
2019-04-04T20:11:47.557Z,90.28
2019-04-04T20:14:16.074Z,90.62
2019-04-04T20:16:44.635Z,90.84
2019-04-04T20:19:13.067Z,90.87
2019-04-04T20:21:41.506Z,91.38
2019-04-04T20:24:10.005Z,91.37
2019-04-04T20:26:38.584Z,91.59
2019-04-04T20:29:07.098Z,91.59
2019-04-04T20:31:35.578Z,91.70
2019-04-04T20:34:05.971Z,91.65
2019-04-04T20:36:34.334Z,91.55
2019-04-04T20:39:03.120Z,91.47
2019-04-04T20:41:31.578Z,91.32
2019-04-04T20:44:00.060Z,91.50
2019-04-04T20:46:28.584Z,91.64
2019-04-04T20:48:57.065Z,91.38
2019-04-04T20:51:25.591Z,91.49
2019-04-04T20:53:54.011Z,91.82
2019-04-04T20:56:22.493Z,91.87
2019-04-04T20:58:51.012Z,91.47
2019-04-04T21:01:19.450Z,91.02
2019-04-04T21:03:47.941Z,90.97
2019-04-04T21:06:16.410Z,90.87
2019-04-04T21:08:44.837Z,90.51
2019-04-04T21:11:13.266Z,90.12
2019-04-04T21:13:42.080Z,89.77
2019-04-04T21:16:10.590Z,89.82
2019-04-04T21:18:39.105Z,89.62
2019-04-04T21:21:07.588Z,90.12
2019-04-04T21:23:36.268Z,90.22
2019-04-04T21:26:04.762Z,90.12
2019-04-04T21:28:33.249Z,90.02
2019-04-04T21:31:01.769Z,89.77
2019-04-04T21:33:30.187Z,89.75
2019-04-04T21:35:59.084Z,89.76
2019-04-04T21:38:27.521Z,89.67
2019-04-04T21:40:55.961Z,90.03
2019-04-04T21:43:25.431Z,88.92
2019-04-04T21:45:53.845Z,88.62
2019-04-04T21:48:22.299Z,88.89
2019-04-04T21:50:50.782Z,89.96
2019-04-04T21:53:19.199Z,90.53
2019-04-04T21:55:47.652Z,90.22
2019-04-04T21:58:16.239Z,90.43
2019-04-04T22:00:45.189Z,90.65
2019-04-04T22:03:13.796Z,90.70
2019-04-04T22:05:42.495Z,90.73
2019-04-04T22:08:10.908Z,90.67
2019-04-04T22:10:39.457Z,90.84
2019-04-04T22:13:07.905Z,90.92
2019-04-04T22:15:36.655Z,91.17
2019-04-04T22:18:05.252Z,91.44
2019-04-04T22:20:33.680Z,91.09
2019-04-04T22:23:02.213Z,91.38
2019-04-04T22:25:30.663Z,90.99
2019-04-04T22:27:59.075Z,91.27
2019-04-04T22:30:27.554Z,91.30
2019-04-04T22:32:56.327Z,91.72
2019-04-04T22:35:24.817Z,91.88
2019-04-04T22:37:53.341Z,91.60
2019-04-04T22:40:23.295Z,91.22
2019-04-04T22:42:51.715Z,90.64
2019-04-04T22:45:20.286Z,90.58
2019-04-04T22:47:48.779Z,91.00
2019-04-04T22:50:17.300Z,91.03
2019-04-04T22:52:45.722Z,91.17
2019-04-04T22:55:14.300Z,91.19
2019-04-04T22:57:42.713Z,91.30
2019-04-04T23:00:11.436Z,91.16
2019-04-04T23:02:40.146Z,91.40
2019-04-04T23:05:08.801Z,91.72
2019-04-04T23:07:37.257Z,92.02
2019-04-04T23:10:07.700Z,91.73
2019-04-04T23:12:36.192Z,92.00
2019-04-04T23:15:09.338Z,91.85
2019-04-04T23:17:37.766Z,91.89
2019-04-04T23:20:08.940Z,92.19
2019-04-04T23:22:37.682Z,92.31
2019-04-04T23:25:07.863Z,92.63
2019-04-04T23:27:36.363Z,92.75
2019-04-04T23:30:06.661Z,92.91
2019-04-04T23:32:35.180Z,92.54
2019-04-04T23:35:04.398Z,92.30
2019-04-04T23:37:32.826Z,92.24
2019-04-04T23:40:01.249Z,92.36
2019-04-04T23:42:29.780Z,92.39
2019-04-04T23:45:01.283Z,92.22
2019-04-04T23:47:28.513Z,91.69
2019-04-04T23:49:56.972Z,92.11
2019-04-04T23:52:25.428Z,92.48
2019-04-04T23:54:53.874Z,92.59
2019-04-04T23:57:22.329Z,93.00
2019-04-04T23:59:50.749Z,93.14
